createdAt,value
2018-01-10T00:01:36.544Z,48.37
2018-01-10T00:04:05.666Z,49.23
2018-01-10T00:06:34.559Z,48.03
2018-01-10T00:09:03.213Z,48.97
2018-01-10T00:11:32.176Z,48.17
2018-01-10T00:14:01.280Z,44.60
2018-01-10T00:16:30.381Z,49.43
2018-01-10T00:18:59.336Z,45.03
2018-01-10T00:21:28.224Z,46.37
2018-01-10T00:23:57.117Z,45.20
2018-01-10T00:26:26.012Z,44.40
2018-01-10T00:28:54.898Z,46.93
2018-01-10T00:31:24.685Z,49.17
2018-01-10T00:33:53.588Z,45.83
2018-01-10T00:36:22.669Z,46.53
2018-01-10T00:38:51.561Z,44.03
2018-01-10T00:41:20.460Z,44.10
2018-01-10T00:43:49.369Z,42.47
2018-01-10T00:46:18.282Z,46.00
2018-01-10T00:48:47.178Z,44.07
2018-01-10T00:51:16.074Z,44.07
2018-01-10T00:53:44.958Z,43.90
2018-01-10T00:56:13.901Z,44.60
2018-01-10T00:58:42.762Z,45.57
2018-01-10T01:01:11.653Z,45.77
2018-01-10T01:03:40.532Z,44.97
2018-01-10T01:06:09.440Z,42.60
2018-01-10T01:08:38.539Z,43.63
2018-01-10T01:11:07.441Z,44.53
2018-01-10T01:13:36.348Z,44.37
2018-01-10T01:16:05.230Z,41.30
2018-01-10T01:18:34.246Z,41.80
2018-01-10T01:21:03.130Z,47.70
2018-01-10T01:23:32.028Z,39.90
2018-01-10T01:26:00.917Z,48.20
2018-01-10T01:28:29.822Z,44.70
2018-01-10T01:30:59.032Z,38.33
2018-01-10T01:33:28.687Z,42.27
2018-01-10T01:35:57.592Z,43.87
2018-01-10T01:38:26.485Z,42.80
2018-01-10T01:40:55.384Z,43.47
2018-01-10T01:43:24.271Z,42.63
2018-01-10T01:45:53.183Z,39.77
2018-01-10T01:48:22.050Z,44.13
2018-01-10T01:50:50.940Z,41.47
2018-01-10T01:53:19.836Z,44.07
2018-01-10T01:55:48.726Z,42.43
2018-01-10T01:58:17.844Z,45.53
2018-01-10T02:00:46.804Z,40.87
2018-01-10T02:03:15.697Z,42.43
2018-01-10T02:05:44.580Z,41.40
2018-01-10T02:08:13.464Z,44.33
2018-01-10T02:10:43.132Z,43.77
2018-01-10T02:13:12.020Z,44.57
2018-01-10T02:15:40.909Z,45.23
2018-01-10T02:18:09.817Z,43.00
2018-01-10T02:20:38.689Z,44.97
2018-01-10T02:23:07.570Z,42.87
2018-01-10T02:25:36.461Z,43.67
2018-01-10T02:28:05.357Z,42.37
2018-01-10T02:30:34.244Z,45.07
2018-01-10T02:33:03.133Z,40.80
2018-01-10T02:35:32.010Z,40.80
2018-01-10T02:38:00.910Z,40.17
2018-01-10T02:40:31.308Z,39.87
2018-01-10T02:43:00.274Z,41.57
2018-01-10T02:45:29.292Z,41.60
2018-01-10T02:47:58.180Z,45.70
2018-01-10T02:50:27.072Z,40.27
2018-01-10T02:52:56.717Z,41.40
2018-01-10T02:55:25.615Z,34.73
2018-01-10T02:57:54.264Z,38.03
2018-01-10T03:00:23.139Z,38.03
2018-01-10T03:02:52.151Z,37.67
2018-01-10T03:05:21.813Z,41.37
2018-01-10T03:07:50.708Z,37.70
2018-01-10T03:10:19.605Z,41.93
2018-01-10T03:12:48.504Z,41.37
2018-01-10T03:15:17.380Z,40.40
2018-01-10T03:17:46.289Z,41.27
2018-01-10T03:20:15.162Z,37.93
2018-01-10T03:22:44.048Z,36.30
2018-01-10T03:25:13.660Z,40.47
2018-01-10T03:27:42.539Z,39.73
2018-01-10T03:30:11.159Z,39.27
2018-01-10T03:32:40.202Z,38.37
2018-01-10T03:35:09.849Z,37.93
2018-01-10T03:37:38.741Z,37.30
2018-01-10T03:40:07.619Z,36.70
2018-01-10T03:42:36.490Z,34.90
2018-01-10T03:45:05.376Z,37.37
2018-01-10T03:47:34.275Z,38.83
2018-01-10T03:50:03.164Z,35.97
2018-01-10T03:52:32.060Z,38.00
2018-01-10T03:55:00.937Z,37.37
2018-01-10T03:57:29.821Z,34.30
2018-01-10T03:59:58.705Z,33.97
2018-01-10T04:02:27.599Z,37.90
2018-01-10T04:04:56.701Z,37.80
2018-01-10T04:07:25.570Z,35.73
2018-01-10T04:09:55.240Z,38.00
2018-01-10T04:12:24.119Z,34.77
2018-01-10T04:14:53.003Z,38.27
2018-01-10T04:17:21.874Z,34.53
2018-01-10T04:19:50.761Z,37.10
2018-01-10T04:22:19.649Z,33.83
2018-01-10T04:24:49.517Z,32.33
2018-01-10T04:27:18.399Z,36.00
2018-01-10T04:29:47.295Z,34.87
2018-01-10T04:32:16.157Z,36.20
2018-01-10T04:34:45.057Z,36.37
2018-01-10T04:37:13.942Z,36.83
2018-01-10T04:39:42.846Z,37.10
2018-01-10T04:42:11.948Z,36.63
2018-01-10T04:44:41.613Z,34.23
2018-01-10T04:47:10.702Z,34.83
2018-01-10T04:49:39.607Z,37.53
2018-01-10T04:52:08.511Z,35.37
2018-01-10T04:54:37.415Z,34.33
2018-01-10T04:57:06.313Z,34.20
2018-01-10T04:59:35.188Z,35.50
2018-01-10T05:02:03.848Z,34.97
2018-01-10T05:04:32.748Z,34.57
2018-01-10T05:07:01.658Z,33.57
2018-01-10T05:09:30.534Z,37.33
2018-01-10T05:11:59.412Z,37.50
2018-01-10T05:14:28.562Z,34.13
2018-01-10T05:16:57.627Z,35.47
2018-01-10T05:19:26.503Z,35.37
2018-01-10T05:21:55.390Z,34.07
2018-01-10T05:24:24.286Z,35.20
2018-01-10T05:26:53.197Z,33.90
2018-01-10T05:29:22.072Z,31.90
2018-01-10T05:31:50.952Z,33.20
2018-01-10T05:34:19.852Z,33.17
2018-01-10T05:36:48.725Z,36.43
2018-01-10T05:39:17.618Z,37.10
2018-01-10T05:41:46.511Z,33.90
2018-01-10T05:44:15.646Z,34.30
2018-01-10T05:46:44.507Z,37.00
2018-01-10T05:49:13.401Z,30.27
2018-01-10T05:51:42.297Z,33.03
2018-01-10T05:54:11.178Z,33.43
2018-01-10T05:56:40.068Z,34.20
2018-01-10T05:59:08.958Z,37.07
2018-01-10T06:01:37.854Z,34.13
2018-01-10T06:04:06.986Z,31.90
2018-01-10T06:06:35.880Z,30.77
2018-01-10T06:09:04.182Z,34.47
2018-01-10T06:11:33.077Z,33.67
2018-01-10T06:14:01.963Z,33.93
2018-01-10T06:16:30.873Z,35.13
2018-01-10T06:18:59.748Z,33.37
2018-01-10T06:21:28.640Z,31.77
2018-01-10T06:23:59.304Z,29.27
2018-01-10T06:26:28.219Z,32.90
2018-01-10T06:28:57.272Z,30.13
2018-01-10T06:31:26.925Z,32.77
2018-01-10T06:33:55.812Z,31.27
2018-01-10T06:36:24.717Z,35.47
2018-01-10T06:38:53.828Z,31.47
2018-01-10T06:41:22.713Z,32.27
2018-01-10T06:43:51.611Z,30.10
2018-01-10T06:46:20.483Z,33.23
2018-01-10T06:48:49.379Z,30.67
2018-01-10T06:51:19.472Z,31.40
2018-01-10T06:53:48.376Z,27.97
2018-01-10T06:56:17.272Z,29.67
2018-01-10T06:58:46.166Z,28.57
2018-01-10T07:01:15.069Z,28.43
2018-01-10T07:03:44.003Z,31.00
2018-01-10T07:06:12.897Z,27.47
2018-01-10T07:08:41.825Z,25.47
2018-01-10T07:11:10.961Z,29.70
2018-01-10T07:13:40.599Z,27.33
2018-01-10T07:16:09.495Z,28.87
2018-01-10T07:18:38.393Z,29.10
2018-01-10T07:21:07.495Z,28.60
2018-01-10T07:23:36.625Z,26.00
2018-01-10T07:26:05.534Z,25.73
2018-01-10T07:28:34.437Z,28.73
2018-01-10T07:31:03.704Z,25.60
2018-01-10T07:33:32.625Z,26.67
2018-01-10T07:36:01.527Z,29.07
2018-01-10T07:38:30.418Z,27.23
2018-01-10T07:40:59.321Z,26.57
2018-01-10T07:43:28.201Z,24.80
2018-01-10T07:45:56.742Z,26.77
2018-01-10T07:48:25.634Z,25.67
2018-01-10T07:50:54.526Z,24.60
2018-01-10T07:53:23.400Z,28.10
2018-01-10T07:55:52.298Z,28.77
2018-01-10T07:58:21.185Z,30.20
2018-01-10T08:00:50.085Z,28.07
2018-01-10T08:03:18.979Z,24.87
2018-01-10T08:05:47.878Z,23.10
2018-01-10T08:08:16.757Z,25.77
2018-01-10T08:10:45.653Z,26.20
2018-01-10T08:13:14.552Z,24.07
2018-01-10T08:15:43.453Z,23.20
2018-01-10T08:18:12.344Z,22.20
2018-01-10T08:20:41.230Z,23.40
2018-01-10T08:23:10.140Z,22.47
2018-01-10T08:25:39.082Z,22.77
2018-01-10T08:28:07.979Z,23.70
2018-01-10T08:30:37.098Z,23.50
2018-01-10T08:33:05.989Z,20.90
2018-01-10T08:35:34.877Z,23.50
2018-01-10T08:38:03.774Z,22.80
2018-01-10T08:40:32.693Z,22.40
2018-01-10T08:43:01.804Z,23.23
2018-01-10T08:45:30.713Z,21.23
2018-01-10T08:47:59.783Z,21.33
2018-01-10T08:50:28.885Z,23.97
2018-01-10T08:52:57.786Z,21.37
2018-01-10T08:55:26.673Z,20.00
2018-01-10T08:57:55.580Z,19.07
2018-01-10T09:00:24.456Z,19.47
2018-01-10T09:02:53.373Z,19.80
2018-01-10T09:05:22.269Z,20.67
2018-01-10T09:07:51.229Z,20.30
2018-01-10T09:10:20.378Z,19.40
2018-01-10T09:12:49.273Z,18.27
2018-01-10T09:15:18.932Z,20.80
2018-01-10T09:17:47.810Z,19.60
2018-01-10T09:20:16.724Z,18.40
2018-01-10T09:22:45.592Z,18.10
2018-01-10T09:25:14.522Z,17.97
2018-01-10T09:27:43.598Z,18.07
2018-01-10T09:30:12.492Z,17.90
2018-01-10T09:32:41.398Z,16.87
2018-01-10T09:35:10.529Z,19.17
2018-01-10T09:37:39.654Z,18.23
2018-01-10T09:40:08.544Z,18.57
2018-01-10T09:42:37.448Z,18.27
2018-01-10T09:45:06.329Z,18.83
2018-01-10T09:47:35.226Z,18.50
2018-01-10T09:50:03.799Z,17.80
2018-01-10T09:52:32.748Z,17.87
2018-01-10T09:55:01.795Z,19.00
2018-01-10T09:57:30.701Z,18.70
2018-01-10T09:59:59.581Z,19.30
2018-01-10T10:02:28.489Z,17.57
2018-01-10T10:04:57.402Z,20.23
2018-01-10T10:07:26.299Z,19.77
2018-01-10T10:09:55.200Z,18.33
2018-01-10T10:12:24.103Z,18.83
2018-01-10T10:14:53.000Z,17.77
2018-01-10T10:17:21.926Z,18.70
2018-01-10T10:19:50.834Z,18.37
2018-01-10T10:22:19.723Z,19.33
2018-01-10T10:24:48.652Z,19.67
2018-01-10T10:27:17.538Z,18.03
2018-01-10T10:29:46.443Z,17.93
2018-01-10T10:32:15.321Z,18.63
2018-01-10T10:34:44.248Z,18.77
2018-01-10T10:37:13.121Z,18.20
2018-01-10T10:39:42.006Z,19.33
2018-01-10T10:42:10.904Z,18.17
2018-01-10T10:44:39.802Z,18.20
2018-01-10T10:47:08.693Z,18.20
2018-01-10T10:49:37.573Z,19.87
2018-01-10T10:52:06.491Z,18.07
2018-01-10T10:54:35.598Z,18.17
2018-01-10T10:57:04.503Z,18.97
2018-01-10T10:59:33.383Z,18.73
2018-01-10T11:02:02.270Z,21.40
2018-01-10T11:04:31.174Z,18.87
2018-01-10T11:07:00.062Z,18.47
2018-01-10T11:09:28.965Z,19.10
2018-01-10T11:11:58.077Z,18.60
2018-01-10T11:14:26.965Z,19.30
2018-01-10T11:16:55.844Z,19.40
2018-01-10T11:19:24.759Z,18.60
2018-01-10T11:21:53.647Z,19.63
2018-01-10T11:24:22.541Z,19.53
2018-01-10T11:26:51.435Z,19.77
2018-01-10T11:29:20.341Z,19.07
2018-01-10T11:31:49.226Z,19.53
2018-01-10T11:34:18.111Z,21.40
2018-01-10T11:36:47.009Z,19.93
2018-01-10T11:39:15.909Z,21.10
2018-01-10T11:41:44.819Z,20.97
2018-01-10T11:44:13.739Z,20.60
2018-01-10T11:46:42.627Z,21.57
2018-01-10T11:49:11.529Z,21.33
2018-01-10T11:51:40.425Z,21.10
2018-01-10T11:54:09.325Z,20.73
2018-01-10T11:56:37.986Z,20.87
2018-01-10T11:59:07.073Z,24.37
2018-01-10T12:01:35.978Z,20.53
2018-01-10T12:04:04.514Z,21.83
2018-01-10T12:06:33.430Z,22.67
2018-01-10T12:09:02.599Z,23.33
2018-01-10T12:11:31.332Z,22.90
2018-01-10T12:14:00.238Z,22.13
2018-01-10T12:16:29.128Z,20.97
2018-01-10T12:18:58.028Z,22.17
2018-01-10T12:21:26.924Z,23.47
2018-01-10T12:23:55.801Z,22.03
2018-01-10T12:26:24.708Z,22.33
2018-01-10T12:28:53.830Z,24.43
2018-01-10T12:31:22.716Z,21.57
2018-01-10T12:33:51.833Z,22.70
2018-01-10T12:36:21.487Z,22.20
2018-01-10T12:38:50.408Z,22.20
2018-01-10T12:41:19.469Z,25.57
2018-01-10T12:43:48.344Z,23.13
2018-01-10T12:46:18.012Z,25.33
2018-01-10T12:48:46.918Z,23.73
2018-01-10T12:51:15.824Z,23.70
2018-01-10T12:53:44.710Z,24.33
2018-01-10T12:56:13.605Z,23.10
2018-01-10T12:58:42.497Z,24.70
2018-01-10T13:01:11.076Z,24.50
2018-01-10T13:03:39.961Z,24.43
2018-01-10T13:06:08.854Z,24.80
2018-01-10T13:08:37.739Z,23.90
2018-01-10T13:11:06.639Z,24.37
2018-01-10T13:13:35.654Z,25.60
2018-01-10T13:16:04.622Z,26.00
2018-01-10T13:18:33.591Z,24.53
2018-01-10T13:21:02.471Z,27.20
2018-01-10T13:23:32.332Z,25.50
2018-01-10T13:26:01.297Z,26.03
2018-01-10T13:28:30.372Z,24.60
2018-01-10T13:30:59.261Z,25.90
2018-01-10T13:33:28.425Z,25.43
2018-01-10T13:35:57.705Z,26.07
2018-01-10T13:38:26.604Z,23.83
2018-01-10T13:40:55.493Z,25.60
2018-01-10T13:43:24.422Z,25.57
2018-01-10T13:45:53.331Z,25.43
2018-01-10T13:48:22.239Z,28.50
2018-01-10T13:50:51.286Z,26.83
2018-01-10T13:53:20.181Z,24.80
2018-01-10T13:55:49.084Z,26.70
2018-01-10T13:58:17.989Z,25.70
2018-01-10T14:00:46.879Z,26.17
2018-01-10T14:03:15.797Z,26.50
2018-01-10T14:05:44.685Z,26.30
2018-01-10T14:08:13.748Z,27.87
2018-01-10T14:10:42.789Z,25.73
2018-01-10T14:13:11.639Z,25.60
2018-01-10T14:15:41.306Z,25.60
2018-01-10T14:18:10.212Z,26.93
2018-01-10T14:20:39.860Z,25.53
2018-01-10T14:23:09.529Z,25.83
2018-01-10T14:25:38.422Z,25.33
2018-01-10T14:28:07.314Z,24.43
2018-01-10T14:30:36.486Z,24.40
2018-01-10T14:33:05.379Z,23.60
2018-01-10T14:35:34.284Z,21.80
2018-01-10T14:38:03.181Z,22.33
2018-01-10T14:40:32.124Z,22.57
2018-01-10T14:43:00.996Z,21.87
2018-01-10T14:45:30.114Z,24.00
2018-01-10T14:47:59.008Z,23.53
2018-01-10T14:50:27.917Z,22.93
2018-01-10T14:52:56.818Z,23.87
2018-01-10T14:55:26.474Z,24.30
2018-01-10T14:57:55.388Z,22.67
2018-01-10T15:00:24.277Z,23.57
2018-01-10T15:02:53.215Z,22.93
2018-01-10T15:05:22.894Z,22.70
2018-01-10T15:07:52.069Z,22.97
2018-01-10T15:10:20.929Z,22.33
2018-01-10T15:12:49.822Z,23.97
2018-01-10T15:15:18.714Z,23.90
2018-01-10T15:17:47.604Z,23.93
2018-01-10T15:20:16.494Z,24.50
2018-01-10T15:22:45.394Z,24.93
2018-01-10T15:25:14.286Z,25.53
2018-01-10T15:27:43.195Z,25.67
2018-01-10T15:30:12.903Z,26.53
2018-01-10T15:32:41.827Z,25.93
2018-01-10T15:35:11.459Z,25.63
2018-01-10T15:37:40.373Z,26.27
2018-01-10T15:40:09.269Z,26.77
2018-01-10T15:42:38.144Z,26.50
2018-01-10T15:45:07.042Z,26.37
2018-01-10T15:47:35.943Z,27.63
2018-01-10T15:50:04.490Z,27.70
2018-01-10T15:52:33.386Z,27.23
2018-01-10T15:55:02.293Z,28.97
2018-01-10T15:57:31.179Z,27.50
2018-01-10T16:00:00.080Z,27.20
2018-01-10T16:02:29.191Z,28.33
2018-01-10T16:04:58.089Z,26.20
2018-01-10T16:07:27.021Z,28.40
2018-01-10T16:09:55.913Z,26.20
2018-01-10T16:12:24.868Z,28.63
2018-01-10T16:14:53.760Z,29.80
2018-01-10T16:17:22.683Z,29.53
2018-01-10T16:19:51.680Z,30.13
2018-01-10T16:22:20.583Z,29.97
2018-01-10T16:24:49.459Z,29.77
2018-01-10T16:27:18.386Z,29.80
2018-01-10T16:29:47.295Z,32.50
2018-01-10T16:32:16.448Z,30.67
2018-01-10T16:34:45.325Z,31.33
2018-01-10T16:37:14.241Z,33.80
2018-01-10T16:39:43.356Z,32.57
2018-01-10T16:42:12.265Z,32.00
2018-01-10T16:44:41.399Z,31.97
2018-01-10T16:47:10.316Z,32.60
2018-01-10T16:49:39.230Z,32.23
2018-01-10T16:52:08.127Z,33.93
2018-01-10T16:54:37.021Z,32.27
2018-01-10T16:57:05.924Z,35.27
2018-01-10T16:59:34.800Z,34.50
2018-01-10T17:02:03.937Z,35.00
2018-01-10T17:04:32.836Z,33.53
2018-01-10T17:07:01.737Z,32.73
2018-01-10T17:09:30.616Z,31.80
2018-01-10T17:11:59.508Z,32.23
2018-01-10T17:14:28.398Z,29.80
2018-01-10T17:16:57.095Z,33.77
2018-01-10T17:19:26.019Z,30.33
2018-01-10T17:21:54.922Z,28.77
2018-01-10T17:24:23.813Z,30.30
2018-01-10T17:26:52.725Z,30.97
2018-01-10T17:29:21.608Z,32.33
2018-01-10T17:31:50.475Z,31.53
2018-01-10T17:34:19.368Z,36.17
2018-01-10T17:36:48.272Z,30.70
2018-01-10T17:39:17.170Z,33.07
2018-01-10T17:41:46.089Z,32.33
2018-01-10T17:44:14.988Z,29.50
2018-01-10T17:46:43.903Z,34.70
2018-01-10T17:49:12.804Z,29.57
2018-01-10T17:51:41.365Z,32.77
2018-01-10T17:54:10.308Z,34.10
2018-01-10T17:56:39.291Z,29.97
2018-01-10T17:59:08.196Z,31.73
2018-01-10T18:01:37.253Z,29.87
2018-01-10T18:04:06.938Z,33.33
2018-01-10T18:06:35.822Z,32.57
2018-01-10T18:09:06.784Z,31.00
2018-01-10T18:11:36.665Z,36.00
2018-01-10T18:14:05.569Z,35.50
2018-01-10T18:16:34.480Z,45.47
2018-01-10T18:19:03.414Z,34.70
2018-01-10T18:21:32.474Z,34.27
2018-01-10T18:24:01.396Z,34.03
2018-01-10T18:26:32.199Z,34.20
2018-01-10T18:29:01.103Z,33.07
2018-01-10T18:31:29.981Z,37.23
2018-01-10T18:33:59.121Z,34.27
2018-01-10T18:36:28.006Z,33.47
2018-01-10T18:38:57.670Z,37.00
2018-01-10T18:41:26.574Z,34.37
2018-01-10T18:43:55.454Z,34.07
2018-01-10T18:46:24.331Z,33.27
2018-01-10T18:48:53.247Z,33.67
2018-01-10T18:51:22.136Z,31.63
2018-01-10T18:53:51.065Z,32.30
2018-01-10T18:56:20.056Z,32.30
2018-01-10T18:58:49.173Z,30.73
2018-01-10T19:01:18.084Z,31.00
2018-01-10T19:03:47.011Z,29.93
2018-01-10T19:06:16.685Z,30.97
2018-01-10T19:08:45.782Z,30.37
2018-01-10T19:11:14.977Z,27.20
2018-01-10T19:13:44.915Z,28.47
2018-01-10T19:16:14.046Z,30.73
2018-01-10T19:18:43.153Z,28.93
2018-01-10T19:21:12.046Z,30.90
2018-01-10T19:23:41.027Z,29.77
2018-01-10T19:26:09.925Z,31.00
2018-01-10T19:28:38.819Z,33.43
2018-01-10T19:31:07.921Z,30.00
2018-01-10T19:33:37.025Z,29.17
2018-01-10T19:36:05.928Z,30.17
2018-01-10T19:38:34.837Z,29.60
2018-01-10T19:41:03.710Z,30.70
2018-01-10T19:43:32.633Z,33.83
2018-01-10T19:46:01.546Z,33.63
2018-01-10T19:48:30.439Z,31.40
2018-01-10T19:50:59.569Z,30.43
2018-01-10T19:53:31.492Z,31.30
2018-01-10T19:56:00.405Z,31.60
2018-01-10T19:58:29.273Z,30.40
2018-01-10T20:00:58.193Z,33.70
2018-01-10T20:03:27.125Z,32.27
2018-01-10T20:05:56.017Z,29.90
2018-01-10T20:08:24.931Z,33.50
2018-01-10T20:10:53.957Z,32.40
2018-01-10T20:13:22.862Z,38.20
2018-01-10T20:15:51.783Z,36.17
2018-01-10T20:18:20.894Z,38.50
2018-01-10T20:20:49.633Z,34.53
2018-01-10T20:23:18.510Z,39.50
2018-01-10T20:25:47.641Z,38.47
2018-01-10T20:28:16.560Z,41.43
2018-01-10T20:30:45.482Z,40.53
2018-01-10T20:33:14.373Z,42.60
2018-01-10T20:35:43.293Z,45.50
2018-01-10T20:38:12.174Z,41.97
2018-01-10T20:40:41.117Z,37.40
2018-01-10T20:43:10.952Z,40.93
2018-01-10T20:45:39.855Z,36.50
2018-01-10T20:48:08.785Z,39.13
2018-01-10T20:50:37.676Z,39.33
2018-01-10T20:53:06.561Z,38.00
2018-01-10T20:55:35.469Z,36.63
2018-01-10T20:58:04.367Z,40.37
2018-01-10T21:00:33.247Z,37.83
2018-01-10T21:03:02.324Z,41.13
2018-01-10T21:05:31.418Z,45.10
2018-01-10T21:08:00.540Z,48.77
2018-01-10T21:10:29.441Z,40.67
2018-01-10T21:12:58.366Z,43.90
2018-01-10T21:15:27.479Z,37.17
2018-01-10T21:17:56.352Z,41.50
2018-01-10T21:20:25.256Z,39.87
2018-01-10T21:22:54.658Z,40.03
2018-01-10T21:25:23.889Z,41.03
2018-01-10T21:27:52.839Z,38.83
2018-01-10T21:30:21.776Z,37.90
2018-01-10T21:32:50.938Z,42.63
2018-01-10T21:35:23.550Z,42.67
2018-01-10T21:37:52.660Z,42.67
2018-01-10T21:40:21.552Z,42.60
2018-01-10T21:42:50.853Z,47.23
2018-01-10T21:45:19.777Z,38.97
2018-01-10T21:47:48.692Z,36.30
2018-01-10T21:50:17.590Z,36.90
2018-01-10T21:52:46.718Z,40.47
2018-01-10T21:55:15.644Z,36.10
2018-01-10T21:57:44.525Z,39.17
2018-01-10T22:00:14.572Z,41.07
2018-01-10T22:02:44.565Z,36.97
2018-01-10T22:05:13.701Z,35.47
2018-01-10T22:07:42.603Z,35.43
2018-01-10T22:10:11.489Z,36.30
2018-01-10T22:12:40.400Z,38.10
2018-01-10T22:15:09.329Z,35.60
2018-01-10T22:17:38.625Z,36.27
2018-01-10T22:20:08.121Z,36.13
2018-01-10T22:22:37.245Z,33.83
2018-01-10T22:25:06.126Z,36.57
2018-01-10T22:27:35.039Z,35.37
2018-01-10T22:30:03.929Z,35.33
2018-01-10T22:32:32.827Z,35.37
2018-01-10T22:35:01.724Z,34.20
2018-01-10T22:37:30.596Z,38.00
2018-01-10T22:40:08.736Z,42.00
2018-01-10T22:42:40.670Z,40.10
2018-01-10T22:45:09.747Z,38.10
2018-01-10T22:47:38.962Z,40.97
2018-01-10T22:50:07.866Z,39.33
2018-01-10T22:52:37.068Z,38.70
2018-01-10T22:55:05.951Z,42.83
2018-01-10T22:57:34.855Z,38.77
2018-01-10T23:00:03.507Z,34.20
2018-01-10T23:02:32.417Z,38.67
2018-01-10T23:05:01.300Z,39.13
2018-01-10T23:07:30.210Z,40.83
2018-01-10T23:09:59.088Z,42.10
2018-01-10T23:12:27.979Z,43.17
2018-01-10T23:14:56.866Z,41.17
2018-01-10T23:17:25.763Z,40.63
2018-01-10T23:19:55.097Z,37.50
2018-01-10T23:22:24.347Z,43.33
2018-01-10T23:24:53.985Z,40.90
2018-01-10T23:27:22.869Z,41.97
2018-01-10T23:29:52.018Z,39.50
2018-01-10T23:32:20.900Z,40.83
2018-01-10T23:34:49.792Z,45.40
2018-01-10T23:37:18.712Z,46.33
2018-01-10T23:39:47.598Z,45.20
2018-01-10T23:42:16.638Z,42.73
2018-01-10T23:44:45.536Z,43.10
2018-01-10T23:47:14.436Z,41.57
2018-01-10T23:49:43.329Z,39.03
2018-01-10T23:52:12.219Z,44.53
2018-01-10T23:54:41.121Z,44.00
2018-01-10T23:57:10.021Z,43.03
2018-01-10T23:59:38.899Z,42.40
